Etusivu
METAR-TAF:

METAR-TAF

Lentoasemat :

Afton, Wyoming, Yhdysvallat

Leveyspiiri: 42-42-32N, Pituuspiiri: 110-56-32W, korkeus merenpinnasta: 1896 m

Tämänhetkinen sää

Tämä raportti tehtiin 28 minuuttia sitten, kello 08.55 UTC
Tuuli 4 kn lännestä/lounaasta
Lämpötila 0°C
Kosteus 100%
Ilmanpaine 1017 hPa
Näkyvyys: 16.1 km
Hajonneita pilviä 3100 ft:n korkeudessa
Hajonneita pilviä 3700 ft:n korkeudessa
Hajonneita pilviä 6000 ft:n korkeudessa

METAR: KAFO 070855Z AUTO 24004KT 10SM BKN031 BKN037 BKN060 00/00 A3003 RMK AO2

Aika: 03:23 (09:23 UTC)


TAF: puuttuu

Säähavainnot ja -ennusteet yli 4000 lentoasemalta (METAR- ja TAF-raportit).

Käytössä olevat sääasemat on merkitty karttaan keltaisilla ja punaisilla pisteillä.

Aseta hiiri pisteen päälle nähdäksesi sääaseman nimen.

Klikkaa sitten nähdäksesi säähavainnot ja -ennusteet.

Kartan vaihtaminen: klikkaa mustalla rastilla varustettuja vihreitä pisteitä, niin voit zoomata sisään; viivalla varustettua vihreää pistettä, niin voit zoomata ulos tai vihreitä nuolia, niin pääset viereisille kartoille.


METAR-TAF: